Itaguai, Brazil
Current Conditions -  °F | °C
As of 11:00 PM on Monday 26 Jan 2015 (Local Time) from SBSC Reporting Station
Clear Clear  
Wind Chill: 77°   Ceiling: Unl
Heat Index: 79°   Visibility: 6mi
Dew Point: 64°   Wind: 5mph
Humidity: 65%   Direction: 30°NNE
Pressure: 29.91"   Gusts: NA
Location:  22.87°S, 43.78°W
Report Text: SBSC 270100Z 03004KT CAVOK 25/18 Q1013
Loading
Personal Weather Stations






























Interactive Weather Map New forecast layout! Learn more

10-Day Weather Forecast

Advertisements
Track Severe Weather on mobile